sensor_id;sensor_type;location;lat;lon;timestamp;pressure;altitude;pressure_sealevel;temperature;humidity
20710;BME280;10516;51.518;9.864;2023-01-31T00:01:11;99181.56;;;1.92;90.81
20710;BME280;10516;51.518;9.864;2023-01-31T00:03:38;99188.22;;;1.88;90.87
20710;BME280;10516;51.518;9.864;2023-01-31T00:06:18;99178.78;;;1.79;90.94
20710;BME280;10516;51.518;9.864;2023-01-31T00:08:46;99171.66;;;1.94;91.15
20710;BME280;10516;51.518;9.864;2023-01-31T00:11:14;99170.78;;;1.87;91.37
20710;BME280;10516;51.518;9.864;2023-01-31T00:13:40;99172.66;;;1.93;91.00
20710;BME280;10516;51.518;9.864;2023-01-31T00:16:06;99186.75;;;1.85;91.11
20710;BME280;10516;51.518;9.864;2023-01-31T00:18:33;99181.38;;;1.93;91.13
20710;BME280;10516;51.518;9.864;2023-01-31T00:21:04;99176.19;;;2.00;90.91
20710;BME280;10516;51.518;9.864;2023-01-31T00:23:29;99178.19;;;1.98;91.05
20710;BME280;10516;51.518;9.864;2023-01-31T00:26:18;99180.75;;;1.91;91.42
20710;BME280;10516;51.518;9.864;2023-01-31T00:28:45;99175.44;;;2.06;90.93
20710;BME280;10516;51.518;9.864;2023-01-31T00:31:12;99171.91;;;1.99;91.28
20710;BME280;10516;51.518;9.864;2023-01-31T00:33:40;99177.16;;;1.99;91.17
20710;BME280;10516;51.518;9.864;2023-01-31T00:36:08;99180.94;;;1.90;91.09
20710;BME280;10516;51.518;9.864;2023-01-31T00:38:35;99179.81;;;1.99;91.55
20710;BME280;10516;51.518;9.864;2023-01-31T00:41:01;99188.28;;;1.94;91.23
20710;BME280;10516;51.518;9.864;2023-01-31T00:43:28;99193.22;;;2.04;91.18
20710;BME280;10516;51.518;9.864;2023-01-31T00:45:53;99187.91;;;1.97;90.89
20710;BME280;10516;51.518;9.864;2023-01-31T00:48:19;99190.16;;;2.00;91.10
20710;BME280;10516;51.518;9.864;2023-01-31T00:50:45;99213.59;;;1.95;91.02
20710;BME280;10516;51.518;9.864;2023-01-31T00:53:10;99227.94;;;1.93;91.15
20710;BME280;10516;51.518;9.864;2023-01-31T00:55:35;99212.53;;;1.90;92.13
20710;BME280;10516;51.518;9.864;2023-01-31T00:58:02;99212.78;;;1.80;91.74
20710;BME280;10516;51.518;9.864;2023-01-31T01:00:29;99213.31;;;1.90;91.74
20710;BME280;10516;51.518;9.864;2023-01-31T01:02:55;99214.69;;;2.01;91.70
20710;BME280;10516;51.518;9.864;2023-01-31T01:05:20;99224.00;;;2.18;90.80
20710;BME280;10516;51.518;9.864;2023-01-31T01:07:46;99215.81;;;2.13;90.96
20710;BME280;10516;51.518;9.864;2023-01-31T01:10:11;99230.34;;;2.09;91.38
20710;BME280;10516;51.518;9.864;2023-01-31T01:12:37;99228.09;;;2.06;91.45
20710;BME280;10516;51.518;9.864;2023-01-31T01:15:03;99225.59;;;2.19;91.22
20710;BME280;10516;51.518;9.864;2023-01-31T01:17:29;99231.41;;;2.14;90.88
20710;BME280;10516;51.518;9.864;2023-01-31T01:19:54;99229.97;;;2.12;91.75
20710;BME280;10516;51.518;9.864;2023-01-31T01:22:20;99243.25;;;2.04;91.09
20710;BME280;10516;51.518;9.864;2023-01-31T01:24:46;99236.53;;;2.16;90.87
20710;BME280;10516;51.518;9.864;2023-01-31T01:27:12;99240.97;;;2.15;91.21
20710;BME280;10516;51.518;9.864;2023-01-31T01:29:38;99235.91;;;2.14;91.12
20710;BME280;10516;51.518;9.864;2023-01-31T01:32:05;99229.81;;;2.13;90.96
20710;BME280;10516;51.518;9.864;2023-01-31T01:34:31;99234.25;;;2.13;91.09
20710;BME280;10516;51.518;9.864;2023-01-31T01:36:56;99238.34;;;2.15;91.09
20710;BME280;10516;51.518;9.864;2023-01-31T01:39:22;99241.88;;;2.08;90.59
20710;BME280;10516;51.518;9.864;2023-01-31T01:41:48;99247.75;;;2.24;90.85
20710;BME280;10516;51.518;9.864;2023-01-31T01:44:48;99242.16;;;2.13;90.89
20710;BME280;10516;51.518;9.864;2023-01-31T01:47:22;99245.06;;;2.18;90.84
20710;BME280;10516;51.518;9.864;2023-01-31T01:49:54;99260.03;;;2.17;90.98
20710;BME280;10516;51.518;9.864;2023-01-31T01:52:21;99251.31;;;2.17;90.71
20710;BME280;10516;51.518;9.864;2023-01-31T01:54:55;99251.19;;;2.25;90.31
20710;BME280;10516;51.518;9.864;2023-01-31T01:57:25;99257.47;;;2.24;90.30
20710;BME280;10516;51.518;9.864;2023-01-31T02:00:20;99268.47;;;2.13;90.59
20710;BME280;10516;51.518;9.864;2023-01-31T02:02:48;99266.56;;;2.21;90.70
20710;BME280;10516;51.518;9.864;2023-01-31T02:05:18;99266.34;;;2.23;90.66
20710;BME280;10516;51.518;9.864;2023-01-31T02:07:44;99270.38;;;2.19;90.66
20710;BME280;10516;51.518;9.864;2023-01-31T02:10:15;99280.25;;;2.17;90.76
20710;BME280;10516;51.518;9.864;2023-01-31T02:12:41;99278.25;;;2.19;90.35
20710;BME280;10516;51.518;9.864;2023-01-31T02:15:07;99267.38;;;2.22;90.36
20710;BME280;10516;51.518;9.864;2023-01-31T02:17:33;99271.09;;;2.13;90.68
20710;BME280;10516;51.518;9.864;2023-01-31T02:20:15;99278.50;;;2.03;90.78
20710;BME280;10516;51.518;9.864;2023-01-31T02:34:03;99296.97;;;2.24;90.36
20710;BME280;10516;51.518;9.864;2023-01-31T02:39:38;99297.16;;;2.22;90.45
20710;BME280;10516;51.518;9.864;2023-01-31T02:42:16;99303.31;;;2.29;90.03
20710;BME280;10516;51.518;9.864;2023-01-31T02:44:50;99298.97;;;2.22;90.53
20710;BME280;10516;51.518;9.864;2023-01-31T02:50:02;99292.25;;;2.19;90.54
20710;BME280;10516;51.518;9.864;2023-01-31T02:52:41;99293.97;;;2.27;89.83
20710;BME280;10516;51.518;9.864;2023-01-31T02:55:21;99300.88;;;2.13;90.76
20710;BME280;10516;51.518;9.864;2023-01-31T02:58:08;99313.94;;;2.21;90.48
20710;BME280;10516;51.518;9.864;2023-01-31T03:00:38;99307.97;;;2.13;90.99
20710;BME280;10516;51.518;9.864;2023-01-31T03:03:06;99306.41;;;2.18;90.82
20710;BME280;10516;51.518;9.864;2023-01-31T03:05:32;99304.97;;;2.16;90.78
20710;BME280;10516;51.518;9.864;2023-01-31T03:07:59;99305.78;;;2.16;90.79
20710;BME280;10516;51.518;9.864;2023-01-31T03:11:10;99305.34;;;2.13;90.93
20710;BME280;10516;51.518;9.864;2023-01-31T03:13:38;99309.63;;;2.14;90.61
20710;BME280;10516;51.518;9.864;2023-01-31T03:16:18;99309.97;;;2.11;90.99
20710;BME280;10516;51.518;9.864;2023-01-31T03:19:18;99319.41;;;2.20;90.34
20710;BME280;10516;51.518;9.864;2023-01-31T03:22:00;99315.31;;;2.17;90.47
20710;BME280;10516;51.518;9.864;2023-01-31T03:24:29;99326.13;;;2.08;90.69
20710;BME280;10516;51.518;9.864;2023-01-31T03:26:56;99322.13;;;2.12;91.07
20710;BME280;10516;51.518;9.864;2023-01-31T03:29:25;99322.22;;;2.04;90.73
20710;BME280;10516;51.518;9.864;2023-01-31T03:31:55;99325.13;;;2.09;90.28
20710;BME280;10516;51.518;9.864;2023-01-31T03:34:24;99316.78;;;2.20;90.43
20710;BME280;10516;51.518;9.864;2023-01-31T03:39:36;99335.75;;;2.15;89.90
20710;BME280;10516;51.518;9.864;2023-01-31T03:42:08;99320.16;;;2.14;90.04
20710;BME280;10516;51.518;9.864;2023-01-31T03:45:01;99322.66;;;2.22;89.89
20710;BME280;10516;51.518;9.864;2023-01-31T03:47:41;99310.88;;;2.18;90.11
20710;BME280;10516;51.518;9.864;2023-01-31T03:50:13;99309.22;;;2.17;89.99
20710;BME280;10516;51.518;9.864;2023-01-31T03:52:45;99310.06;;;2.17;90.06
20710;BME280;10516;51.518;9.864;2023-01-31T03:55:16;99310.41;;;2.14;90.08
20710;BME280;10516;51.518;9.864;2023-01-31T03:57:47;99306.91;;;2.07;90.43
20710;BME280;10516;51.518;9.864;2023-01-31T04:00:15;99316.13;;;2.18;90.05
20710;BME280;10516;51.518;9.864;2023-01-31T04:02:43;99312.41;;;2.12;90.03
20710;BME280;10516;51.518;9.864;2023-01-31T04:05:18;99306.88;;;2.22;89.94
20710;BME280;10516;51.518;9.864;2023-01-31T04:07:45;99309.31;;;2.23;90.00
20710;BME280;10516;51.518;9.864;2023-01-31T04:10:17;99301.97;;;2.19;89.80
20710;BME280;10516;51.518;9.864;2023-01-31T04:12:45;99298.78;;;2.23;89.85
20710;BME280;10516;51.518;9.864;2023-01-31T04:15:11;99295.06;;;2.18;89.82
20710;BME280;10516;51.518;9.864;2023-01-31T04:17:36;99293.91;;;2.20;89.93
20710;BME280;10516;51.518;9.864;2023-01-31T04:20:04;99298.06;;;2.15;89.86
20710;BME280;10516;51.518;9.864;2023-01-31T04:22:30;99300.78;;;1.92;89.65
20710;BME280;10516;51.518;9.864;2023-01-31T04:24:56;99301.44;;;2.09;90.12
20710;BME280;10516;51.518;9.864;2023-01-31T04:27:21;99304.34;;;2.14;90.24
20710;BME280;10516;51.518;9.864;2023-01-31T04:29:46;99315.44;;;2.09;90.03
20710;BME280;10516;51.518;9.864;2023-01-31T04:32:12;99308.50;;;2.08;89.71
20710;BME280;10516;51.518;9.864;2023-01-31T04:34:37;99302.19;;;2.03;90.19
20710;BME280;10516;51.518;9.864;2023-01-31T04:37:04;99300.53;;;2.02;90.43
20710;BME280;10516;51.518;9.864;2023-01-31T04:39:29;99308.44;;;2.02;90.11
20710;BME280;10516;51.518;9.864;2023-01-31T04:41:55;99305.97;;;2.15;90.26
20710;BME280;10516;51.518;9.864;2023-01-31T04:44:20;99309.97;;;2.11;90.12
20710;BME280;10516;51.518;9.864;2023-01-31T04:46:45;99301.44;;;2.09;90.08
20710;BME280;10516;51.518;9.864;2023-01-31T04:49:12;99299.91;;;2.00;90.91
20710;BME280;10516;51.518;9.864;2023-01-31T04:51:37;99294.16;;;2.11;90.44
20710;BME280;10516;51.518;9.864;2023-01-31T04:54:03;99304.69;;;2.11;89.68
20710;BME280;10516;51.518;9.864;2023-01-31T04:56:29;99309.50;;;2.22;89.96
20710;BME280;10516;51.518;9.864;2023-01-31T04:58:56;99289.19;;;2.16;89.96
20710;BME280;10516;51.518;9.864;2023-01-31T05:01:21;99298.78;;;2.23;89.85
20710;BME280;10516;51.518;9.864;2023-01-31T05:03:48;99295.59;;;2.28;89.87
20710;BME280;10516;51.518;9.864;2023-01-31T05:06:13;99297.94;;;2.23;89.50
20710;BME280;10516;51.518;9.864;2023-01-31T05:08:39;99296.69;;;2.19;90.28
20710;BME280;10516;51.518;9.864;2023-01-31T05:11:04;99295.78;;;2.26;89.50
20710;BME280;10516;51.518;9.864;2023-01-31T05:13:31;99289.06;;;2.24;89.36
20710;BME280;10516;51.518;9.864;2023-01-31T05:15:57;99287.72;;;2.13;89.16
20710;BME280;10516;51.518;9.864;2023-01-31T05:18:24;99286.16;;;2.19;89.91
20710;BME280;10516;51.518;9.864;2023-01-31T05:20:49;99286.09;;;2.12;89.78
20710;BME280;10516;51.518;9.864;2023-01-31T05:23:16;99287.88;;;2.12;89.93
20710;BME280;10516;51.518;9.864;2023-01-31T05:25:42;99292.44;;;2.18;89.66
20710;BME280;10516;51.518;9.864;2023-01-31T05:28:07;99294.97;;;2.26;89.69
20710;BME280;10516;51.518;9.864;2023-01-31T05:30:33;99295.47;;;2.36;89.01
20710;BME280;10516;51.518;9.864;2023-01-31T05:32:58;99303.84;;;2.25;89.19
20710;BME280;10516;51.518;9.864;2023-01-31T05:35:23;99297.59;;;2.26;89.36
20710;BME280;10516;51.518;9.864;2023-01-31T05:37:49;99295.03;;;2.33;89.10
20710;BME280;10516;51.518;9.864;2023-01-31T05:40:15;99301.22;;;2.25;89.60
20710;BME280;10516;51.518;9.864;2023-01-31T05:42:41;99289.44;;;2.21;89.17
20710;BME280;10516;51.518;9.864;2023-01-31T05:45:08;99286.16;;;2.19;89.32
20710;BME280;10516;51.518;9.864;2023-01-31T05:47:34;99281.09;;;2.17;88.93
20710;BME280;10516;51.518;9.864;2023-01-31T05:49:59;99284.97;;;2.21;88.28
20710;BME280;10516;51.518;9.864;2023-01-31T05:52:25;99282.53;;;2.20;87.89
20710;BME280;10516;51.518;9.864;2023-01-31T05:54:50;99280.47;;;2.15;87.68
20710;BME280;10516;51.518;9.864;2023-01-31T05:57:15;99274.66;;;2.20;88.09
20710;BME280;10516;51.518;9.864;2023-01-31T05:59:41;99283.84;;;2.09;88.33
20710;BME280;10516;51.518;9.864;2023-01-31T06:02:06;99293.34;;;2.10;87.95
20710;BME280;10516;51.518;9.864;2023-01-31T06:04:33;99283.63;;;2.11;88.24
20710;BME280;10516;51.518;9.864;2023-01-31T06:06:58;99281.28;;;2.16;88.21
20710;BME280;10516;51.518;9.864;2023-01-31T06:09:24;99277.75;;;2.09;88.23
20710;BME280;10516;51.518;9.864;2023-01-31T06:11:49;99276.88;;;2.23;87.71
20710;BME280;10516;51.518;9.864;2023-01-31T06:14:15;99285.81;;;2.22;87.58
20710;BME280;10516;51.518;9.864;2023-01-31T06:16:40;99266.94;;;2.04;87.64
20710;BME280;10516;51.518;9.864;2023-01-31T06:19:05;99279.28;;;2.18;87.78
20710;BME280;10516;51.518;9.864;2023-01-31T06:21:31;99284.97;;;2.21;88.15
20710;BME280;10516;51.518;9.864;2023-01-31T06:23:56;99281.44;;;2.29;86.85
20710;BME280;10516;51.518;9.864;2023-01-31T06:26:22;99286.72;;;2.14;87.59
20710;BME280;10516;51.518;9.864;2023-01-31T06:28:47;99276.41;;;1.98;87.84
20710;BME280;10516;51.518;9.864;2023-01-31T06:31:13;99277.72;;;2.23;87.15
20710;BME280;10516;51.518;9.864;2023-01-31T06:33:38;99282.72;;;2.04;87.77
20710;BME280;10516;51.518;9.864;2023-01-31T06:36:04;99276.72;;;2.24;86.49
20710;BME280;10516;51.518;9.864;2023-01-31T06:38:30;99263.84;;;2.15;86.97
20710;BME280;10516;51.518;9.864;2023-01-31T06:40:55;99270.91;;;2.14;86.91
20710;BME280;10516;51.518;9.864;2023-01-31T06:43:21;99278.25;;;2.19;86.56
20710;BME280;10516;51.518;9.864;2023-01-31T06:45:46;99279.28;;;2.03;86.56
20710;BME280;10516;51.518;9.864;2023-01-31T06:48:14;99272.28;;;2.10;86.41
20710;BME280;10516;51.518;9.864;2023-01-31T06:50:39;99273.47;;;2.08;86.69
20710;BME280;10516;51.518;9.864;2023-01-31T06:53:04;99277.00;;;2.15;86.27
20710;BME280;10516;51.518;9.864;2023-01-31T06:55:30;99276.66;;;2.18;85.87
20710;BME280;10516;51.518;9.864;2023-01-31T06:57:55;99285.06;;;2.28;85.34
20710;BME280;10516;51.518;9.864;2023-01-31T07:00:21;99267.75;;;2.04;86.20
20710;BME280;10516;51.518;9.864;2023-01-31T07:02:49;99261.75;;;2.10;86.17
20710;BME280;10516;51.518;9.864;2023-01-31T07:05:15;99271.19;;;2.19;86.24
20710;BME280;10516;51.518;9.864;2023-01-31T07:07:41;99272.75;;;2.14;86.18
20710;BME280;10516;51.518;9.864;2023-01-31T07:10:07;99267.50;;;2.14;85.88
20710;BME280;10516;51.518;9.864;2023-01-31T07:12:32;99254.75;;;2.17;85.83
20710;BME280;10516;51.518;9.864;2023-01-31T07:14:58;99257.47;;;2.24;85.92
20710;BME280;10516;51.518;9.864;2023-01-31T07:17:23;99258.66;;;2.21;85.44
20710;BME280;10516;51.518;9.864;2023-01-31T07:19:48;99256.75;;;2.15;85.65
20710;BME280;10516;51.518;9.864;2023-01-31T07:22:14;99253.19;;;2.23;85.36
20710;BME280;10516;51.518;9.864;2023-01-31T07:24:39;99254.25;;;2.07;85.61
20710;BME280;10516;51.518;9.864;2023-01-31T07:27:04;99266.19;;;2.10;85.82
20710;BME280;10516;51.518;9.864;2023-01-31T07:29:30;99257.66;;;2.08;85.73
20710;BME280;10516;51.518;9.864;2023-01-31T07:31:55;99263.22;;;2.13;84.70
20710;BME280;10516;51.518;9.864;2023-01-31T07:34:20;99261.41;;;2.13;84.98
20710;BME280;10516;51.518;9.864;2023-01-31T07:36:50;99260.66;;;2.19;85.70
20710;BME280;10516;51.518;9.864;2023-01-31T07:39:16;99256.13;;;2.13;85.14
20710;BME280;10516;51.518;9.864;2023-01-31T07:41:41;99246.44;;;2.14;85.39
20710;BME280;10516;51.518;9.864;2023-01-31T07:44:07;99241.50;;;2.11;85.60
20710;BME280;10516;51.518;9.864;2023-01-31T07:46:36;99245.75;;;2.12;85.41
20710;BME280;10516;51.518;9.864;2023-01-31T07:49:02;99233.44;;;2.12;85.16
20710;BME280;10516;51.518;9.864;2023-01-31T07:51:28;99231.97;;;2.10;85.09
20710;BME280;10516;51.518;9.864;2023-01-31T07:53:53;99230.63;;;2.14;84.61
20710;BME280;10516;51.518;9.864;2023-01-31T07:56:20;99229.63;;;2.15;84.44
20710;BME280;10516;51.518;9.864;2023-01-31T07:58:47;99225.38;;;2.14;85.17
20710;BME280;10516;51.518;9.864;2023-01-31T08:01:23;99224.97;;;2.17;85.94
20710;BME280;10516;51.518;9.864;2023-01-31T08:04:10;99229.34;;;2.10;86.13
20710;BME280;10516;51.518;9.864;2023-01-31T08:06:38;99229.19;;;2.11;86.52
20710;BME280;10516;51.518;9.864;2023-01-31T08:09:04;99221.16;;;2.19;86.00
20710;BME280;10516;51.518;9.864;2023-01-31T08:11:29;99214.50;;;2.23;85.79
20710;BME280;10516;51.518;9.864;2023-01-31T08:13:55;99205.69;;;2.31;85.89
20710;BME280;10516;51.518;9.864;2023-01-31T08:16:20;99206.41;;;2.25;85.67
20710;BME280;10516;51.518;9.864;2023-01-31T08:18:50;99199.03;;;2.35;85.25
20710;BME280;10516;51.518;9.864;2023-01-31T08:21:16;99195.41;;;2.36;85.55
20710;BME280;10516;51.518;9.864;2023-01-31T08:23:42;99193.09;;;2.26;85.79
20710;BME280;10516;51.518;9.864;2023-01-31T08:26:13;99192.63;;;2.23;86.19
20710;BME280;10516;51.518;9.864;2023-01-31T08:28:41;99185.69;;;2.15;86.39
20710;BME280;10516;51.518;9.864;2023-01-31T08:31:12;99193.91;;;2.27;86.36
20710;BME280;10516;51.518;9.864;2023-01-31T08:33:37;99199.19;;;2.27;86.63
20710;BME280;10516;51.518;9.864;2023-01-31T08:36:17;99184.00;;;2.29;86.10
20710;BME280;10516;51.518;9.864;2023-01-31T08:38:43;99184.06;;;2.36;86.49
20710;BME280;10516;51.518;9.864;2023-01-31T08:41:12;99172.91;;;2.34;86.34
20710;BME280;10516;51.518;9.864;2023-01-31T08:43:37;99171.53;;;2.38;86.25
20710;BME280;10516;51.518;9.864;2023-01-31T08:46:04;99185.75;;;2.43;85.85
20710;BME280;10516;51.518;9.864;2023-01-31T08:48:33;99175.00;;;2.45;85.96
20710;BME280;10516;51.518;9.864;2023-01-31T08:51:01;99175.41;;;2.42;86.13
20710;BME280;10516;51.518;9.864;2023-01-31T08:53:26;99170.41;;;2.47;86.11
20710;BME280;10516;51.518;9.864;2023-01-31T08:55:57;99171.53;;;2.38;86.77
20710;BME280;10516;51.518;9.864;2023-01-31T08:58:22;99170.19;;;2.48;86.06
20710;BME280;10516;51.518;9.864;2023-01-31T09:00:47;99161.69;;;2.46;86.13
20710;BME280;10516;51.518;9.864;2023-01-31T09:03:14;99160.44;;;2.42;86.61
20710;BME280;10516;51.518;9.864;2023-01-31T09:05:43;99172.56;;;2.43;86.40
20710;BME280;10516;51.518;9.864;2023-01-31T09:08:09;99158.34;;;2.38;86.62
20710;BME280;10516;51.518;9.864;2023-01-31T09:10:35;99153.38;;;2.28;87.11
20710;BME280;10516;51.518;9.864;2023-01-31T09:13:00;99152.13;;;2.24;87.19
20710;BME280;10516;51.518;9.864;2023-01-31T09:15:25;99153.72;;;2.40;86.86
20710;BME280;10516;51.518;9.864;2023-01-31T09:17:51;99159.34;;;2.37;86.93
20710;BME280;10516;51.518;9.864;2023-01-31T09:20:17;99154.41;;;2.27;87.44
20710;BME280;10516;51.518;9.864;2023-01-31T09:22:42;99159.53;;;2.35;87.39
20710;BME280;10516;51.518;9.864;2023-01-31T09:25:08;99139.84;;;2.52;86.86
20710;BME280;10516;51.518;9.864;2023-01-31T09:27:35;99142.91;;;2.56;86.29
20710;BME280;10516;51.518;9.864;2023-01-31T09:30:06;99145.72;;;2.54;86.31
20710;BME280;10516;51.518;9.864;2023-01-31T09:32:32;99141.66;;;2.52;86.71
20710;BME280;10516;51.518;9.864;2023-01-31T09:34:57;99144.75;;;2.55;86.70
20710;BME280;10516;51.518;9.864;2023-01-31T09:37:23;99132.00;;;2.59;86.20
20710;BME280;10516;51.518;9.864;2023-01-31T09:39:49;99128.78;;;2.63;86.75
20710;BME280;10516;51.518;9.864;2023-01-31T09:42:20;99116.19;;;2.59;86.73
20710;BME280;10516;51.518;9.864;2023-01-31T09:45:00;99114.47;;;2.72;86.44
20710;BME280;10516;51.518;9.864;2023-01-31T09:47:33;99125.59;;;2.68;86.76
20710;BME280;10516;51.518;9.864;2023-01-31T09:50:24;99117.47;;;2.69;87.15
20710;BME280;10516;51.518;9.864;2023-01-31T09:52:51;99122.31;;;2.66;87.21
20710;BME280;10516;51.518;9.864;2023-01-31T09:55:23;99120.00;;;2.77;86.55
20710;BME280;10516;51.518;9.864;2023-01-31T09:58:10;99123.88;;;2.81;86.86
20710;BME280;10516;51.518;9.864;2023-01-31T10:00:53;99127.69;;;2.79;86.97
20710;BME280;10516;51.518;9.864;2023-01-31T10:03:43;99115.97;;;2.81;86.60
20710;BME280;10516;51.518;9.864;2023-01-31T10:06:24;99103.78;;;2.80;86.51
20710;BME280;10516;51.518;9.864;2023-01-31T10:09:06;99103.78;;;2.80;86.45
20710;BME280;10516;51.518;9.864;2023-01-31T10:11:37;99098.69;;;2.79;86.29
20710;BME280;10516;51.518;9.864;2023-01-31T10:14:21;99100.72;;;2.77;86.52
20710;BME280;10516;51.518;9.864;2023-01-31T10:19:31;99082.88;;;2.79;86.84
20710;BME280;10516;51.518;9.864;2023-01-31T10:22:06;99085.56;;;2.85;86.48
20710;BME280;10516;51.518;9.864;2023-01-31T10:24:56;99088.25;;;2.92;86.28
20710;BME280;10516;51.518;9.864;2023-01-31T10:27:37;99086.34;;;2.79;87.06
20710;BME280;10516;51.518;9.864;2023-01-31T10:30:13;99081.94;;;2.93;87.09
20710;BME280;10516;51.518;9.864;2023-01-31T10:32:42;99079.69;;;2.83;87.46
20710;BME280;10516;51.518;9.864;2023-01-31T10:35:20;99075.44;;;2.89;87.77
20710;BME280;10516;51.518;9.864;2023-01-31T10:37:54;99071.84;;;2.96;87.32
20710;BME280;10516;51.518;9.864;2023-01-31T10:40:36;99076.13;;;3.04;87.04
20710;BME280;10516;51.518;9.864;2023-01-31T10:43:17;99065.56;;;2.97;87.52
20710;BME280;10516;51.518;9.864;2023-01-31T10:45:45;99062.28;;;2.95;87.77
20710;BME280;10516;51.518;9.864;2023-01-31T10:48:21;99049.91;;;2.89;87.68
20710;BME280;10516;51.518;9.864;2023-01-31T10:56:28;99067.97;;;2.92;88.45
20710;BME280;10516;51.518;9.864;2023-01-31T10:58:57;99065.34;;;2.92;88.34
20710;BME280;10516;51.518;9.864;2023-01-31T11:01:23;99055.63;;;2.99;88.24
20710;BME280;10516;51.518;9.864;2023-01-31T11:03:51;99054.03;;;3.05;87.93
20710;BME280;10516;51.518;9.864;2023-01-31T11:06:17;99048.31;;;3.01;88.29
20710;BME280;10516;51.518;9.864;2023-01-31T11:08:49;99045.94;;;3.07;87.69
20710;BME280;10516;51.518;9.864;2023-01-31T11:11:19;99044.28;;;2.99;88.72
20710;BME280;10516;51.518;9.864;2023-01-31T11:14:15;99037.19;;;3.06;88.54
20710;BME280;10516;51.518;9.864;2023-01-31T11:16:41;99028.91;;;3.09;88.74
20710;BME280;10516;51.518;9.864;2023-01-31T11:19:22;99018.78;;;3.13;88.45
20710;BME280;10516;51.518;9.864;2023-01-31T11:21:50;99021.97;;;3.01;88.61
20710;BME280;10516;51.518;9.864;2023-01-31T11:24:20;99003.31;;;2.96;89.36
20710;BME280;10516;51.518;9.864;2023-01-31T11:26:54;98997.88;;;3.11;89.21
20710;BME280;10516;51.518;9.864;2023-01-31T11:29:27;98987.06;;;2.93;90.42
20710;BME280;10516;51.518;9.864;2023-01-31T11:31:53;98969.22;;;2.95;90.28
20710;BME280;10516;51.518;9.864;2023-01-31T11:34:25;98941.44;;;2.92;90.42
20710;BME280;10516;51.518;9.864;2023-01-31T11:36:51;98939.78;;;2.85;91.44
20710;BME280;10516;51.518;9.864;2023-01-31T11:39:29;98947.94;;;2.96;91.58
20710;BME280;10516;51.518;9.864;2023-01-31T11:42:27;98944.72;;;3.01;91.11
20710;BME280;10516;51.518;9.864;2023-01-31T11:44:59;98935.81;;;3.09;91.44
20710;BME280;10516;51.518;9.864;2023-01-31T11:50:22;98929.91;;;3.00;92.11
20710;BME280;10516;51.518;9.864;2023-01-31T11:52:56;98927.25;;;2.93;91.74
20710;BME280;10516;51.518;9.864;2023-01-31T11:55:23;98920.78;;;3.02;91.80
20710;BME280;10516;51.518;9.864;2023-01-31T11:57:55;98912.22;;;2.87;92.42
20710;BME280;10516;51.518;9.864;2023-01-31T12:00:23;98898.63;;;2.84;92.41
20710;BME280;10516;51.518;9.864;2023-01-31T12:02:59;98901.88;;;2.79;92.35
20710;BME280;10516;51.518;9.864;2023-01-31T12:05:44;98892.38;;;2.91;92.18
20710;BME280;10516;51.518;9.864;2023-01-31T12:08:35;98876.78;;;3.03;91.34
20710;BME280;10516;51.518;9.864;2023-01-31T12:11:05;98884.69;;;2.96;91.91
20710;BME280;10516;51.518;9.864;2023-01-31T12:13:46;98869.03;;;2.95;92.08
20710;BME280;10516;51.518;9.864;2023-01-31T12:16:12;98857.09;;;2.92;91.64
20710;BME280;10516;51.518;9.864;2023-01-31T12:37:15;98865.66;;;3.14;91.30
20710;BME280;10516;51.518;9.864;2023-01-31T12:40:32;98870.94;;;3.21;90.61
20710;BME280;10516;51.518;9.864;2023-01-31T12:45:29;98866.06;;;3.18;90.59
20710;BME280;10516;51.518;9.864;2023-01-31T12:48:07;98862.59;;;3.11;90.83
20710;BME280;10516;51.518;9.864;2023-01-31T12:50:42;98870.72;;;3.22;90.64
20710;BME280;10516;51.518;9.864;2023-01-31T13:01:53;98857.16;;;3.19;91.11
20710;BME280;10516;51.518;9.864;2023-01-31T13:04:48;98846.00;;;3.17;91.39
20710;BME280;10516;51.518;9.864;2023-01-31T13:07:31;98838.09;;;3.30;90.86
20710;BME280;10516;51.518;9.864;2023-01-31T13:10:02;98843.16;;;3.31;90.71
20710;BME280;10516;51.518;9.864;2023-01-31T13:12:32;98846.59;;;3.19;91.32
20710;BME280;10516;51.518;9.864;2023-01-31T13:15:27;98843.16;;;3.25;91.73
20710;BME280;10516;51.518;9.864;2023-01-31T13:17:59;98836.06;;;3.25;91.53
20710;BME280;10516;51.518;9.864;2023-01-31T13:20:38;98839.69;;;3.24;92.26
20710;BME280;10516;51.518;9.864;2023-01-31T13:23:11;98833.00;;;3.35;91.02
20710;BME280;10516;51.518;9.864;2023-01-31T13:25:45;98826.50;;;3.31;91.87
20710;BME280;10516;51.518;9.864;2023-01-31T13:28:21;98839.91;;;3.29;91.35
20710;BME280;10516;51.518;9.864;2023-01-31T13:30:55;98838.47;;;3.27;91.84
20710;BME280;10516;51.518;9.864;2023-01-31T13:34:09;98829.75;;;3.33;90.95
20710;BME280;10516;51.518;9.864;2023-01-31T13:36:43;98833.81;;;3.22;91.39
20710;BME280;10516;51.518;9.864;2023-01-31T13:39:38;98834.41;;;3.24;91.73
20710;BME280;10516;51.518;9.864;2023-01-31T13:42:05;98820.41;;;3.24;91.59
20710;BME280;10516;51.518;9.864;2023-01-31T13:44:31;98838.88;;;3.37;91.93
20710;BME280;10516;51.518;9.864;2023-01-31T13:47:01;98834.81;;;3.34;91.05
20710;BME280;10516;51.518;9.864;2023-01-31T13:49:37;98834.81;;;3.15;92.36
20710;BME280;10516;51.518;9.864;2023-01-31T13:52:11;98835.25;;;3.25;91.55
20710;BME280;10516;51.518;9.864;2023-01-31T13:55:01;98827.94;;;3.27;91.42
20710;BME280;10516;51.518;9.864;2023-01-31T13:57:34;98828.31;;;3.24;91.78
20710;BME280;10516;51.518;9.864;2023-01-31T14:03:06;98833.59;;;3.30;91.44
20710;BME280;10516;51.518;9.864;2023-01-31T14:08:37;98851.47;;;3.28;91.63
20710;BME280;10516;51.518;9.864;2023-01-31T14:16:42;98876.00;;;3.22;92.08
20710;BME280;10516;51.518;9.864;2023-01-31T14:35:53;98870.13;;;3.27;91.65
20710;BME280;10516;51.518;9.864;2023-01-31T14:58:53;98851.44;;;3.15;91.74
20710;BME280;10516;51.518;9.864;2023-01-31T15:01:20;98850.81;;;3.07;92.19
20710;BME280;10516;51.518;9.864;2023-01-31T15:03:55;98847.00;;;3.16;91.89
20710;BME280;10516;51.518;9.864;2023-01-31T15:08:49;98839.69;;;3.18;91.96
20710;BME280;10516;51.518;9.864;2023-01-31T15:13:53;98833.19;;;3.14;92.25
20710;BME280;10516;51.518;9.864;2023-01-31T15:16:30;98823.63;;;3.06;92.30
20710;BME280;10516;51.518;9.864;2023-01-31T15:19:00;98825.88;;;3.09;92.14
20710;BME280;10516;51.518;9.864;2023-01-31T15:21:35;98831.97;;;3.10;92.25